Airfield :
LOGIN :

Register | Disclaimer

   EN    FR    IT 

 










Legend :    VFR   Marginal VFR   IFR   Intensive IFR   Very Intensive IFR
Visi :
Ceiling :
>= 8 km
>= 3000ft
5 to 8 km
1000 to 3000 ft
1500m to 5 km
500 to 1000 ft
800 to 1500m
200 to 500 ft
< 800m
< 200 ft
Symbols :   Thunderstorms  Fog  Heavy snow  Heavy precipitations  Wind > 20 kt
SIGMETs :     Misc.  Thunderstorms  Icing  Turbulence  Mountain Waves  Volcanic Ashes







- Airport Elevation : 327 ft
- IATA code : BHX
- Download approach charts


EGBB - Birmingham

CURRENT METAR :
  • 172250Z 32012KT CAVOK 06/03 Q1022

EXPIRED METARs :
  • 172220Z 31012KT CAVOK 07/03 Q1021
  • 172150Z 32014KT 9999 BKN034 07/04 Q1021
  • 172120Z 30010KT 270V330 9999 SCT038 08/04 Q1020
  • 172050Z 32015KT 9999 FEW018 BKN030 09/06 Q1020
  • 172020Z 32013KT 9999 SCT018 BKN041 09/07 Q1020

TAF AMD TAF EGBB
Valid from the 17 at 21:00 until the 18 at 18:00 UTC


172102Z 1721/1818 32009KT 9999 SCT030
TEMPO 1803/1812 8000 BKN008
PROB30
TEMPO 1805/1811 3000 BR BKN004
PROB40
TEMPO 1812/1818 8000 BKN010
ATIS : +44 121 780 0910
No reported NOTAMs for that airfield.



MET'MAP, your aeronautical weather chart ! - Copyright ORBIFLY December 2007 - Disclaimer

ORBIFLY MET'MAP TEAM :

Programming & Development : Alexandra Zaïnal
Concept & Development : Baudouin d'Aumeries
Co-Development & Prog : Marc-Olivier Méhu
Technical & hardware support : Manuel Goepfert

Contact : metmap@orbifly.com




SOURCES & CREDITS :

   NOAA